KMDW

Chicago Midway International Airport

Chicago, Illinois, USA
KMDW 171725Z 1718/1824 32013G20KT P6SM FEW040 FM180000 31005KT P6SM FEW250 FM181300 23006KT P6SM SKC
Issued Valid From Valid To
Oct-17 @ 17:25 UTC
(3 hours ago)
Oct-17 @ 18:00 UTC
(2 hours ago)
Oct-19 @ 00:00 UTC
(-1 days ago)
Oct-17 @ 18:00 to Oct-18 @ 00:00
KMDW 171725Z 1718/1824 32013G20KT P6SM FEW040
Wind Visibility Clouds
320° at 13 knots
 Gusting to 20 knots
Greater than 6 miles
  • Few at 4,000' AGL
From Oct-18 @ 00:00 to Oct-18 @ 13:00
FM180000 31005KT P6SM FEW250
Wind Visibility Clouds
310° at 5 knots Greater than 6 miles
  • Few at 25,000' AGL
From Oct-18 @ 13:00 to Oct-19 @ 00:00
FM181300 23006KT P6SM SKC
Wind Visibility Clouds
230° at 6 knots Greater than 6 miles
  • Clear skies
KMDW 171725Z 1718/1824 32013G20KT P6SM FEW040 FM180000 31005KT P6SM FEW250 FM181300 23006KT P6SM SKC
Issued Oct-17 @ 17:25 UTC
(3 hours ago)
Valid From Oct-17 @ 18:00 UTC
(2 hours ago)
Valid To Oct-19 @ 00:00 UTC
(-1 days ago)
Oct-17 @ 18:00 - Oct-18 @ 00:00
Wind Visibility
320° at 13 knots
 Gusting to 20 knots
Greater than 6 miles
Clouds
  • Few at 4,000' AGL
From Oct-18 @ 00:00 - Oct-18 @ 13:00
Wind Visibility
310° at 5 knots Greater than 6 miles
Clouds
  • Few at 25,000' AGL
From Oct-18 @ 13:00 - Oct-19 @ 00:00
Wind Visibility
230° at 6 knots Greater than 6 miles
Clouds
  • Clear skies